createdAt,value
2023-01-22T00:00:43.127Z,86.54
2023-01-22T00:05:21.140Z,86.70
2023-01-22T00:09:38.809Z,87.04
2023-01-22T00:13:56.526Z,87.45
2023-01-22T00:18:14.828Z,87.73
2023-01-22T00:22:32.590Z,87.76
2023-01-22T00:26:50.219Z,87.47
2023-01-22T00:31:08.679Z,87.28
2023-01-22T00:35:26.461Z,87.27
2023-01-22T00:39:43.951Z,87.22
2023-01-22T00:44:01.748Z,87.06
2023-01-22T00:48:19.358Z,86.85
2023-01-22T00:52:40.503Z,86.79
2023-01-22T00:56:57.914Z,86.66
2023-01-22T01:01:16.529Z,86.69
2023-01-22T01:05:33.983Z,86.61
2023-01-22T01:09:51.114Z,86.63
2023-01-22T01:14:09.680Z,86.75
2023-01-22T01:18:27.480Z,86.66
2023-01-22T01:22:44.981Z,86.77
2023-01-22T01:27:02.752Z,86.89
2023-01-22T01:31:23.278Z,86.89
2023-01-22T01:35:41.139Z,86.65
2023-01-22T01:39:58.688Z,86.56
2023-01-22T01:44:23.153Z,86.63
2023-01-22T01:48:48.746Z,86.63
2023-01-22T01:53:07.033Z,86.62
2023-01-22T01:57:27.859Z,86.39
2023-01-22T02:01:51.472Z,86.32
2023-01-22T02:06:16.910Z,86.33
2023-01-22T02:10:34.468Z,86.30
2023-01-22T02:14:52.199Z,85.91
2023-01-22T02:19:09.949Z,85.87
2023-01-22T02:23:30.305Z,86.01
2023-01-22T02:27:47.955Z,85.67
2023-01-22T02:32:05.568Z,85.65
2023-01-22T02:36:23.232Z,86.04
2023-01-22T02:40:49.363Z,86.00
2023-01-22T02:45:08.265Z,85.90
2023-01-22T02:49:25.484Z,85.79
2023-01-22T02:53:43.137Z,85.58
2023-01-22T02:58:00.643Z,85.46
2023-01-22T03:02:18.430Z,85.31
2023-01-22T03:06:36.385Z,84.64
2023-01-22T03:10:59.272Z,84.77
2023-01-22T03:15:35.484Z,84.24
2023-01-22T03:20:12.046Z,84.58
2023-01-22T03:24:29.710Z,83.96
2023-01-22T03:28:47.986Z,84.06
2023-01-22T03:33:05.304Z,84.27
2023-01-22T03:37:22.989Z,84.19
2023-01-22T03:41:40.910Z,84.64
2023-01-22T03:46:11.107Z,84.45
2023-01-22T03:50:29.145Z,84.85
2023-01-22T03:54:46.647Z,84.43
2023-01-22T03:59:04.220Z,84.61
2023-01-22T04:03:21.715Z,84.63
2023-01-22T04:07:39.277Z,84.52
2023-01-22T04:11:56.742Z,84.45
2023-01-22T04:16:15.466Z,84.66
2023-01-22T04:20:32.912Z,84.23
2023-01-22T04:24:50.475Z,84.46
2023-01-22T04:29:09.289Z,84.05
2023-01-22T04:33:26.919Z,84.42
2023-01-22T04:37:44.644Z,84.53
2023-01-22T04:42:02.164Z,84.62
2023-01-22T04:46:20.491Z,85.02
2023-01-22T04:50:38.468Z,84.78
2023-01-22T04:54:56.187Z,84.68
2023-01-22T04:59:13.678Z,84.75
2023-01-22T05:03:31.334Z,85.04
2023-01-22T05:07:48.829Z,85.24
2023-01-22T05:12:06.864Z,85.34
2023-01-22T05:16:24.351Z,85.46
2023-01-22T05:20:42.290Z,85.42
2023-01-22T05:24:59.805Z,85.36
2023-01-22T05:29:17.479Z,85.13
2023-01-22T05:33:34.997Z,85.22
2023-01-22T05:37:52.693Z,85.55
2023-01-22T05:42:17.143Z,85.40
2023-01-22T05:46:34.745Z,85.72
2023-01-22T05:50:52.091Z,85.75
2023-01-22T05:55:09.839Z,85.70
2023-01-22T05:59:27.465Z,85.83
2023-01-22T06:03:44.692Z,85.83
2023-01-22T06:08:02.565Z,85.93
2023-01-22T06:12:20.082Z,86.04
2023-01-22T06:16:37.681Z,85.88
2023-01-22T06:21:06.627Z,85.97
2023-01-22T06:25:24.225Z,85.86
2023-01-22T06:29:41.846Z,85.88
2023-01-22T06:33:59.362Z,86.16
2023-01-22T06:38:17.126Z,86.15
2023-01-22T06:42:37.453Z,86.18
2023-01-22T06:46:55.004Z,86.04
2023-01-22T06:51:13.441Z,86.14
2023-01-22T06:55:30.747Z,85.39
2023-01-22T06:59:48.376Z,85.25
2023-01-22T07:04:05.934Z,85.51
2023-01-22T07:08:24.065Z,85.08
2023-01-22T07:12:41.596Z,84.57
2023-01-22T07:16:59.193Z,84.83
2023-01-22T07:21:16.840Z,84.38
2023-01-22T07:25:34.349Z,84.31
2023-01-22T07:29:52.054Z,83.93
2023-01-22T07:34:09.635Z,83.78
2023-01-22T07:38:28.538Z,84.01
2023-01-22T07:42:46.041Z,83.58
2023-01-22T07:47:03.712Z,83.74
2023-01-22T07:51:21.456Z,83.87
2023-01-22T07:55:40.645Z,83.74
2023-01-22T07:59:58.141Z,84.04
2023-01-22T08:04:15.822Z,83.56
2023-01-22T08:08:33.291Z,83.19
2023-01-22T08:12:50.838Z,82.58
2023-01-22T08:17:08.487Z,82.51
2023-01-22T08:21:25.956Z,82.46
2023-01-22T08:25:43.422Z,82.42
2023-01-22T08:30:00.519Z,82.66
2023-01-22T08:34:18.146Z,82.63
2023-01-22T08:38:35.764Z,82.54
2023-01-22T08:42:54.918Z,82.30
2023-01-22T08:47:12.539Z,82.91
2023-01-22T08:51:33.014Z,83.13
2023-01-22T08:55:51.127Z,83.15
2023-01-22T09:00:11.472Z,83.06
2023-01-22T09:04:29.223Z,83.29
2023-01-22T09:08:46.754Z,82.99
2023-01-22T09:13:04.669Z,82.92
2023-01-22T09:17:22.447Z,82.02
2023-01-22T09:21:40.514Z,81.43
2023-01-22T09:25:58.225Z,81.56
2023-01-22T09:30:16.817Z,81.47
2023-01-22T09:34:34.574Z,82.10
2023-01-22T09:38:52.295Z,81.07
2023-01-22T09:43:35.996Z,80.50
2023-01-22T09:47:59.956Z,80.34
2023-01-22T09:52:17.641Z,80.36
2023-01-22T09:56:42.153Z,80.56
2023-01-22T10:01:04.508Z,80.31
2023-01-22T10:05:36.097Z,80.57
2023-01-22T10:10:02.598Z,81.09
2023-01-22T10:14:23.316Z,82.15
2023-01-22T10:19:04.023Z,81.66
2023-01-22T10:23:25.973Z,81.32
2023-01-22T10:27:45.958Z,81.43
2023-01-22T10:32:24.481Z,80.98
2023-01-22T10:36:50.648Z,79.56
2023-01-22T10:41:18.428Z,79.42
2023-01-22T10:45:36.075Z,79.11
2023-01-22T10:50:07.167Z,79.34
2023-01-22T10:54:31.989Z,79.95
2023-01-22T10:58:49.545Z,79.55
2023-01-22T11:03:33.165Z,80.07
2023-01-22T11:08:11.468Z,80.04
2023-01-22T11:12:38.236Z,80.78
2023-01-22T11:17:04.291Z,81.38
2023-01-22T11:21:46.933Z,81.64
2023-01-22T11:26:26.245Z,82.54
2023-01-22T11:31:04.032Z,83.08
2023-01-22T11:36:09.924Z,83.62
2023-01-22T11:40:34.650Z,83.82
2023-01-22T11:45:00.601Z,83.95
2023-01-22T11:49:50.605Z,83.59
2023-01-22T11:54:46.271Z,83.76
2023-01-22T11:59:36.650Z,83.62
2023-01-22T12:04:13.370Z,83.94
2023-01-22T12:08:55.610Z,84.37
2023-01-22T12:14:03.588Z,84.12
2023-01-22T12:18:37.397Z,84.75
2023-01-22T12:23:10.424Z,85.20
2023-01-22T12:27:55.307Z,84.90
2023-01-22T12:32:15.656Z,85.23
2023-01-22T12:36:34.032Z,85.57
2023-01-22T12:41:21.439Z,86.20
2023-01-22T12:46:01.745Z,86.53
2023-01-22T12:50:22.809Z,86.75
2023-01-22T12:54:40.633Z,86.90
2023-01-22T12:58:59.365Z,86.71
2023-01-22T13:03:32.285Z,86.91
2023-01-22T13:08:05.018Z,87.25
2023-01-22T13:12:29.020Z,87.60
2023-01-22T13:16:59.660Z,87.56
2023-01-22T13:21:24.390Z,87.82
2023-01-22T13:25:43.071Z,87.80
2023-01-22T13:30:09.780Z,87.25
2023-01-22T13:34:28.579Z,87.56
2023-01-22T13:38:57.150Z,88.00
2023-01-22T13:43:19.882Z,88.16
2023-01-22T13:47:37.379Z,88.31
2023-01-22T13:51:58.201Z,88.04
2023-01-22T13:56:19.362Z,88.62
2023-01-22T14:00:37.243Z,88.38
2023-01-22T14:04:54.833Z,88.44
2023-01-22T14:09:12.478Z,88.53
2023-01-22T14:13:41.272Z,88.87
2023-01-22T14:18:10.131Z,89.05
2023-01-22T14:22:28.049Z,89.04
2023-01-22T14:26:45.681Z,88.89
2023-01-22T14:31:03.991Z,89.24
2023-01-22T14:35:25.018Z,89.41
2023-01-22T14:39:42.695Z,89.40
2023-01-22T14:44:03.756Z,89.49
2023-01-22T14:48:22.444Z,89.34
2023-01-22T14:52:39.983Z,89.08
2023-01-22T14:56:59.766Z,89.07
2023-01-22T15:01:20.906Z,88.80
2023-01-22T15:05:38.543Z,88.76
2023-01-22T15:09:56.273Z,88.86
2023-01-22T15:14:13.903Z,88.97
2023-01-22T15:18:31.777Z,89.15
2023-01-22T15:22:50.207Z,89.14
2023-01-22T15:27:08.154Z,89.09
2023-01-22T15:31:25.981Z,89.04
2023-01-22T15:35:44.045Z,89.02
2023-01-22T15:40:02.347Z,89.08
2023-01-22T15:44:19.847Z,89.22
2023-01-22T15:48:38.122Z,89.34
2023-01-22T15:52:58.207Z,89.34
2023-01-22T15:57:15.779Z,89.49
2023-01-22T16:01:33.818Z,89.57
2023-01-22T16:05:54.266Z,89.86
2023-01-22T16:10:11.912Z,89.84
2023-01-22T16:14:29.531Z,89.98
2023-01-22T16:18:48.764Z,89.95
2023-01-22T16:23:07.103Z,90.10
2023-01-22T16:27:24.813Z,90.26
2023-01-22T16:31:42.664Z,90.42
2023-01-22T16:36:06.364Z,90.57
2023-01-22T16:40:24.055Z,90.64
2023-01-22T16:44:41.768Z,90.53
2023-01-22T16:49:08.788Z,90.35
2023-01-22T16:53:27.412Z,90.34
2023-01-22T16:57:44.936Z,90.39
2023-01-22T17:02:05.742Z,90.50
2023-01-22T17:06:47.401Z,90.56
2023-01-22T17:11:06.447Z,90.56
2023-01-22T17:15:24.084Z,90.48
2023-01-22T17:19:42.024Z,90.40
2023-01-22T17:23:59.747Z,90.49
2023-01-22T17:28:18.866Z,90.50
2023-01-22T17:32:36.635Z,90.49
2023-01-22T17:36:54.378Z,90.30
2023-01-22T17:41:21.734Z,90.36
2023-01-22T17:45:40.453Z,90.35
2023-01-22T17:49:57.984Z,90.36
2023-01-22T17:54:15.935Z,90.39
2023-01-22T17:58:33.753Z,90.26
2023-01-22T18:02:51.837Z,90.42
2023-01-22T18:07:09.504Z,90.22
2023-01-22T18:11:29.998Z,90.33
2023-01-22T18:15:48.684Z,90.42
2023-01-22T18:20:09.563Z,90.28
2023-01-22T18:24:27.450Z,90.32
2023-01-22T18:28:45.204Z,90.35
2023-01-22T18:33:02.863Z,90.49
2023-01-22T18:37:20.703Z,90.48
2023-01-22T18:41:40.114Z,90.61
2023-01-22T18:46:05.587Z,90.48
2023-01-22T18:50:23.384Z,90.41
2023-01-22T18:54:40.921Z,90.28
2023-01-22T18:58:58.982Z,90.28
2023-01-22T19:03:16.575Z,90.11
2023-01-22T19:07:38.480Z,90.14
2023-01-22T19:11:56.347Z,90.06
2023-01-22T19:16:17.088Z,89.98
2023-01-22T19:20:36.873Z,89.94
2023-01-22T19:24:57.415Z,89.88
2023-01-22T19:29:17.739Z,89.89
2023-01-22T19:33:35.357Z,89.89
2023-01-22T19:37:53.166Z,89.63
2023-01-22T19:42:10.899Z,89.38
2023-01-22T19:46:29.172Z,89.14
2023-01-22T19:50:46.865Z,89.16
2023-01-22T19:55:04.970Z,89.13
2023-01-22T19:59:23.937Z,89.07
2023-01-22T20:03:42.458Z,88.98
2023-01-22T20:08:00.145Z,88.95
2023-01-22T20:12:17.576Z,88.80
2023-01-22T20:16:35.319Z,88.88
2023-01-22T20:20:57.339Z,88.80
2023-01-22T20:25:15.704Z,88.69
2023-01-22T20:29:33.552Z,88.88
2023-01-22T20:33:55.055Z,88.75
2023-01-22T20:38:12.829Z,88.70
2023-01-22T20:42:32.091Z,88.71
2023-01-22T20:46:49.648Z,88.70
2023-01-22T20:51:15.502Z,88.49
2023-01-22T20:55:33.529Z,88.44
2023-01-22T20:59:51.176Z,88.60
2023-01-22T21:04:11.633Z,88.60
2023-01-22T21:08:29.443Z,88.55
2023-01-22T21:12:47.211Z,88.46
2023-01-22T21:17:04.728Z,88.38
2023-01-22T21:21:22.816Z,88.34
2023-01-22T21:25:40.463Z,88.41
2023-01-22T21:29:58.761Z,88.53
2023-01-22T21:34:18.214Z,88.62
2023-01-22T21:38:36.684Z,88.70
2023-01-22T21:43:12.805Z,88.63
2023-01-22T21:47:30.762Z,88.57
2023-01-22T21:52:05.635Z,88.57
2023-01-22T21:56:24.370Z,88.68
2023-01-22T22:00:41.885Z,88.44
2023-01-22T22:05:00.134Z,88.54
2023-01-22T22:09:24.987Z,88.70
2023-01-22T22:13:42.933Z,88.52
2023-01-22T22:18:00.459Z,88.63
2023-01-22T22:22:18.095Z,88.68
2023-01-22T22:26:35.726Z,88.71
2023-01-22T22:30:53.559Z,88.92
2023-01-22T22:35:11.168Z,88.87
2023-01-22T22:39:28.795Z,89.03
2023-01-22T22:43:48.470Z,88.82
2023-01-22T22:48:06.964Z,88.69
2023-01-22T22:52:24.340Z,88.76
2023-01-22T22:56:42.104Z,88.71
2023-01-22T23:00:59.258Z,88.29
2023-01-22T23:05:17.172Z,88.44
2023-01-22T23:09:34.652Z,88.38
2023-01-22T23:13:52.708Z,88.23
2023-01-22T23:18:10.306Z,88.29
2023-01-22T23:22:28.033Z,88.38
2023-01-22T23:26:46.138Z,88.36
2023-01-22T23:31:14.333Z,88.46
2023-01-22T23:35:32.156Z,88.43
2023-01-22T23:39:51.269Z,88.32
2023-01-22T23:44:09.408Z,88.39
2023-01-22T23:48:27.882Z,88.43
2023-01-22T23:52:46.819Z,88.41
2023-01-22T23:57:04.405Z,88.29
